createdAt,value
2022-10-14T00:01:24.976Z,7.71
2022-10-14T00:04:04.862Z,7.71
2022-10-14T00:06:44.456Z,7.70
2022-10-14T00:09:26.051Z,7.74
2022-10-14T00:12:05.848Z,7.73
2022-10-14T00:14:45.519Z,7.68
2022-10-14T00:17:24.096Z,7.70
2022-10-14T00:20:04.346Z,7.69
2022-10-14T00:22:45.465Z,7.67
2022-10-14T00:25:26.295Z,7.74
2022-10-14T00:28:03.738Z,7.73
2022-10-14T00:30:43.199Z,7.71
2022-10-14T00:33:21.576Z,7.61
2022-10-14T00:36:04.097Z,7.57
2022-10-14T00:38:45.813Z,7.51
2022-10-14T00:41:25.439Z,7.60
2022-10-14T00:44:15.876Z,7.45
2022-10-14T00:46:55.603Z,7.53
2022-10-14T00:49:42.140Z,7.50
2022-10-14T00:52:24.131Z,7.41
2022-10-14T00:55:18.866Z,7.43
2022-10-14T00:57:58.167Z,7.40
2022-10-14T01:00:39.223Z,7.44
2022-10-14T01:03:23.197Z,7.43
2022-10-14T01:06:16.982Z,7.44
2022-10-14T01:09:07.529Z,7.39
2022-10-14T01:11:46.001Z,7.44
2022-10-14T01:14:43.415Z,7.46
2022-10-14T01:17:51.937Z,7.54
2022-10-14T01:20:31.995Z,7.55
2022-10-14T01:23:32.774Z,7.58
2022-10-14T01:26:47.890Z,7.56
2022-10-14T01:30:03.034Z,7.66
2022-10-14T01:32:59.470Z,7.65
2022-10-14T01:35:58.192Z,7.59
2022-10-14T01:39:14.953Z,7.60
2022-10-14T01:42:08.240Z,7.46
2022-10-14T01:44:54.265Z,7.50
2022-10-14T01:47:35.859Z,7.39
2022-10-14T01:50:21.340Z,7.40
2022-10-14T01:53:07.940Z,7.39
2022-10-14T01:55:49.260Z,7.30
2022-10-14T01:58:34.464Z,7.25
2022-10-14T02:01:14.728Z,7.05
2022-10-14T02:03:55.021Z,7.00
2022-10-14T02:06:40.296Z,7.04
2022-10-14T02:09:30.907Z,6.98
2022-10-14T02:12:10.380Z,7.25
2022-10-14T02:15:01.475Z,7.23
2022-10-14T02:17:48.447Z,7.24
2022-10-14T02:20:32.472Z,7.35
2022-10-14T02:23:26.987Z,7.38
2022-10-14T02:26:08.427Z,7.36
2022-10-14T02:28:49.319Z,7.47
2022-10-14T02:31:29.525Z,7.28
2022-10-14T02:34:12.738Z,7.04
2022-10-14T02:36:53.546Z,7.07
2022-10-14T02:39:38.468Z,7.16
2022-10-14T02:42:17.776Z,7.13
2022-10-14T02:45:00.117Z,7.15
2022-10-14T02:47:37.989Z,7.20
2022-10-14T02:50:19.112Z,7.47
2022-10-14T02:52:59.256Z,7.47
2022-10-14T02:55:38.257Z,7.40
2022-10-14T02:58:18.801Z,7.28
2022-10-14T03:00:58.020Z,7.10
2022-10-14T03:03:38.360Z,6.95
2022-10-14T03:06:17.593Z,7.14
2022-10-14T03:08:58.987Z,7.10
2022-10-14T03:11:38.881Z,7.10
2022-10-14T03:14:21.841Z,6.98
2022-10-14T03:17:01.808Z,7.08
2022-10-14T03:19:45.370Z,7.08
2022-10-14T03:22:27.895Z,6.96
2022-10-14T03:25:08.057Z,6.97
2022-10-14T03:27:54.212Z,6.86
2022-10-14T03:30:43.210Z,6.85
2022-10-14T03:33:29.818Z,6.78
2022-10-14T03:36:26.192Z,6.96
2022-10-14T03:39:10.065Z,6.86
2022-10-14T03:42:01.114Z,6.95
2022-10-14T03:44:47.248Z,6.67
2022-10-14T03:47:30.614Z,6.70
2022-10-14T03:50:10.570Z,6.68
2022-10-14T03:53:02.738Z,6.61
2022-10-14T03:55:47.415Z,6.53
2022-10-14T03:58:27.436Z,6.67
2022-10-14T04:01:14.269Z,6.62
2022-10-14T04:04:12.800Z,6.57
2022-10-14T04:06:52.359Z,6.50
2022-10-14T04:09:38.008Z,6.58
2022-10-14T04:12:17.237Z,6.49
2022-10-14T04:15:14.505Z,6.49
2022-10-14T04:18:13.288Z,6.50
2022-10-14T04:20:55.120Z,6.25
2022-10-14T04:23:38.371Z,6.05
2022-10-14T04:26:25.915Z,6.32
2022-10-14T04:29:08.697Z,6.24
2022-10-14T04:31:56.465Z,6.04
2022-10-14T04:34:36.232Z,6.28
2022-10-14T04:37:17.256Z,6.35
2022-10-14T04:40:20.639Z,6.12
2022-10-14T04:43:00.098Z,6.15
2022-10-14T04:45:46.060Z,6.23
2022-10-14T04:48:35.588Z,6.01
2022-10-14T04:51:17.011Z,6.12
2022-10-14T04:54:19.131Z,6.12
2022-10-14T04:57:07.142Z,6.22
2022-10-14T04:59:47.080Z,6.36
2022-10-14T05:02:56.539Z,6.24
2022-10-14T05:05:42.022Z,6.35
2022-10-14T05:08:21.922Z,6.44
2022-10-14T05:11:08.246Z,6.23
2022-10-14T05:14:06.361Z,6.26
2022-10-14T05:16:46.538Z,6.18
2022-10-14T05:19:26.415Z,6.09
2022-10-14T05:22:06.260Z,6.32
2022-10-14T05:24:51.613Z,6.15
2022-10-14T05:27:34.102Z,6.18
2022-10-14T05:30:16.900Z,6.23
2022-10-14T05:33:01.679Z,6.25
2022-10-14T05:35:57.995Z,6.39
2022-10-14T05:38:39.674Z,6.31
2022-10-14T05:41:20.042Z,6.32
2022-10-14T05:43:58.434Z,6.52
2022-10-14T05:46:38.655Z,6.42
2022-10-14T05:49:20.937Z,6.56
2022-10-14T05:52:00.660Z,6.47
2022-10-14T05:54:42.324Z,6.56
2022-10-14T05:57:25.715Z,6.50
2022-10-14T06:00:07.123Z,6.53
2022-10-14T06:02:59.970Z,6.48
2022-10-14T06:05:38.463Z,6.44
2022-10-14T06:08:17.760Z,6.53
2022-10-14T06:10:57.672Z,6.49
2022-10-14T06:13:37.709Z,6.61
2022-10-14T06:16:19.657Z,6.70
2022-10-14T06:18:58.667Z,6.75
2022-10-14T06:21:38.727Z,6.85
2022-10-14T06:24:18.395Z,6.92
2022-10-14T06:26:58.393Z,6.94
2022-10-14T06:29:38.580Z,7.00
2022-10-14T06:32:17.823Z,7.07
2022-10-14T06:34:58.321Z,7.15
2022-10-14T06:37:37.706Z,7.12
2022-10-14T06:40:29.197Z,7.12
2022-10-14T06:43:09.020Z,7.15
2022-10-14T06:45:58.465Z,7.21
2022-10-14T06:48:39.765Z,7.30
2022-10-14T06:51:20.918Z,7.35
2022-10-14T06:54:00.097Z,7.52
2022-10-14T06:56:39.474Z,7.58
2022-10-14T06:59:46.167Z,7.63
2022-10-14T07:02:26.077Z,7.54
2022-10-14T07:05:04.952Z,7.55
2022-10-14T07:07:47.027Z,7.72
2022-10-14T07:10:28.656Z,7.86
2022-10-14T07:13:07.978Z,8.06
2022-10-14T07:15:52.391Z,8.06
2022-10-14T07:18:32.410Z,8.14
2022-10-14T07:21:12.139Z,8.36
2022-10-14T07:23:51.840Z,8.43
2022-10-14T07:26:32.739Z,8.42
2022-10-14T07:29:12.195Z,8.49
2022-10-14T07:31:51.702Z,8.71
2022-10-14T07:34:29.781Z,8.70
2022-10-14T07:37:09.496Z,9.02
2022-10-14T07:39:49.648Z,9.20
2022-10-14T07:42:29.414Z,9.23
2022-10-14T07:45:09.947Z,9.29
2022-10-14T07:47:50.631Z,9.27
2022-10-14T07:50:30.809Z,9.33
2022-10-14T07:53:10.303Z,9.67
2022-10-14T07:55:52.618Z,9.77
2022-10-14T07:58:32.365Z,9.65
2022-10-14T08:01:11.495Z,9.84
2022-10-14T08:03:52.105Z,10.08
2022-10-14T08:06:30.963Z,10.15
2022-10-14T08:09:14.024Z,10.02
2022-10-14T08:11:53.752Z,10.34
2022-10-14T08:14:33.518Z,10.57
2022-10-14T08:17:13.368Z,10.45
2022-10-14T08:19:53.904Z,10.45
2022-10-14T08:22:33.846Z,10.57
2022-10-14T08:25:12.839Z,10.54
2022-10-14T08:27:51.815Z,10.81
2022-10-14T08:30:32.444Z,11.31
2022-10-14T08:33:13.231Z,11.47
2022-10-14T08:35:54.108Z,11.34
2022-10-14T08:38:33.639Z,11.87
2022-10-14T08:41:13.723Z,11.46
2022-10-14T08:44:26.076Z,11.61
2022-10-14T08:47:05.260Z,11.80
2022-10-14T08:49:59.033Z,11.76
2022-10-14T08:52:45.660Z,12.41
2022-10-14T08:55:39.697Z,12.34
2022-10-14T08:58:43.604Z,12.37
2022-10-14T09:01:27.987Z,12.47
2022-10-14T09:04:15.840Z,12.60
2022-10-14T09:06:56.042Z,12.55
2022-10-14T09:09:43.577Z,12.76
2022-10-14T09:12:27.296Z,12.85
2022-10-14T09:15:10.418Z,13.33
2022-10-14T09:18:08.528Z,13.02
2022-10-14T09:20:48.743Z,13.27
2022-10-14T09:23:28.526Z,13.00
2022-10-14T09:26:17.530Z,13.11
2022-10-14T09:28:57.311Z,13.15
2022-10-14T09:31:36.975Z,12.66
2022-10-14T09:34:25.871Z,12.60
2022-10-14T09:37:33.654Z,12.33
2022-10-14T09:40:13.659Z,12.27
2022-10-14T09:43:01.244Z,12.36
2022-10-14T09:46:02.527Z,12.37
2022-10-14T09:48:50.537Z,12.19
2022-10-14T09:51:32.147Z,12.30
2022-10-14T09:54:28.552Z,12.18
2022-10-14T09:57:17.701Z,12.42
2022-10-14T10:00:02.070Z,12.38
2022-10-14T10:02:48.472Z,13.00
2022-10-14T10:05:34.214Z,12.89
2022-10-14T10:08:14.835Z,13.64
2022-10-14T10:11:11.329Z,13.59
2022-10-14T10:13:52.630Z,13.50
2022-10-14T10:16:34.959Z,13.24
2022-10-14T10:19:48.048Z,13.63
2022-10-14T10:22:34.174Z,13.64
2022-10-14T10:25:13.050Z,14.21
2022-10-14T10:27:52.978Z,13.42
2022-10-14T10:31:04.608Z,13.50
2022-10-14T10:33:44.076Z,13.05
2022-10-14T10:36:50.941Z,13.44
2022-10-14T10:39:40.157Z,12.92
2022-10-14T10:42:41.248Z,13.62
2022-10-14T10:45:35.537Z,13.55
2022-10-14T10:48:46.777Z,13.20
2022-10-14T10:51:38.431Z,13.25
2022-10-14T10:54:39.550Z,13.17
2022-10-14T10:57:32.208Z,12.98
2022-10-14T11:00:17.255Z,12.98
2022-10-14T11:03:29.851Z,13.32
2022-10-14T11:06:37.055Z,14.12
2022-10-14T11:10:02.551Z,14.23
2022-10-14T11:13:03.984Z,13.92
2022-10-14T11:15:57.765Z,14.01
2022-10-14T11:18:45.649Z,13.95
2022-10-14T11:21:38.446Z,14.06
2022-10-14T11:24:20.372Z,14.67
2022-10-14T11:27:12.088Z,13.89
2022-10-14T11:29:50.299Z,13.77
2022-10-14T11:32:30.814Z,14.19
2022-10-14T11:41:22.575Z,13.73
2022-10-14T11:43:59.857Z,13.60
2022-10-14T11:46:35.743Z,13.68
2022-10-14T11:49:13.695Z,13.84
2022-10-14T11:51:50.118Z,13.94
2022-10-14T11:54:38.924Z,14.14
2022-10-14T11:57:32.858Z,13.92
2022-10-14T12:00:24.014Z,13.96
2022-10-14T12:02:59.695Z,13.86
2022-10-14T12:05:54.699Z,14.27
2022-10-14T12:08:51.536Z,14.09
2022-10-14T12:11:38.225Z,13.91
2022-10-14T12:14:31.231Z,13.90
2022-10-14T12:17:03.999Z,14.03
2022-10-14T12:19:33.196Z,14.30
2022-10-14T12:22:04.512Z,14.26
2022-10-14T12:24:38.422Z,14.08
2022-10-14T12:27:10.676Z,13.91
2022-10-14T12:29:44.111Z,14.42
2022-10-14T12:32:21.210Z,14.02
2022-10-14T12:34:56.342Z,13.94
2022-10-14T12:37:35.672Z,13.96
2022-10-14T12:40:06.984Z,13.97
2022-10-14T12:42:45.247Z,14.01
2022-10-14T12:45:20.380Z,14.23
2022-10-14T12:48:01.991Z,14.34
2022-10-14T12:50:35.802Z,14.46
2022-10-14T12:58:15.274Z,15.11
2022-10-14T13:01:53.426Z,15.80
2022-10-14T13:05:34.913Z,15.51
2022-10-14T13:08:20.083Z,16.16
2022-10-14T13:11:04.811Z,15.55
2022-10-14T13:13:49.342Z,16.19
2022-10-14T13:16:26.975Z,16.40
2022-10-14T13:19:01.716Z,16.11
2022-10-14T13:21:34.646Z,16.05
2022-10-14T13:24:06.383Z,16.00
2022-10-14T13:26:53.837Z,15.87
2022-10-14T13:30:03.334Z,16.04
2022-10-14T13:40:04.732Z,16.02
2022-10-14T13:43:34.646Z,15.65
2022-10-14T13:46:57.232Z,15.53
2022-10-14T13:50:22.198Z,15.74
2022-10-14T13:53:43.963Z,15.45
2022-10-14T13:56:47.704Z,15.06
2022-10-14T14:03:59.082Z,15.42
2022-10-14T14:07:18.718Z,15.13
2022-10-14T14:14:06.988Z,15.14
2022-10-14T14:16:42.852Z,15.17
2022-10-14T14:19:36.876Z,15.31
2022-10-14T14:22:28.812Z,15.12
2022-10-14T14:25:43.051Z,15.28
2022-10-14T14:28:17.833Z,15.57
2022-10-14T14:30:54.996Z,15.24
2022-10-14T14:33:34.018Z,14.87
2022-10-14T14:36:05.719Z,14.72
2022-10-14T14:38:37.246Z,14.55
2022-10-14T14:41:22.593Z,14.47
2022-10-14T14:44:24.113Z,14.53
2022-10-14T14:46:46.969Z,14.24
2022-10-14T14:49:24.630Z,13.97
2022-10-14T14:51:54.367Z,14.04
2022-10-14T14:54:24.408Z,14.04
2022-10-14T14:57:06.268Z,13.92
2022-10-14T14:59:42.280Z,14.16
2022-10-14T15:02:21.362Z,14.29
2022-10-14T15:05:05.676Z,14.03
2022-10-14T15:07:35.838Z,13.71
2022-10-14T15:10:07.670Z,13.65
2022-10-14T15:12:42.039Z,13.62
2022-10-14T15:15:33.607Z,13.62
2022-10-14T15:18:24.628Z,13.39
2022-10-14T15:21:04.067Z,13.27
2022-10-14T15:23:50.677Z,13.15
2022-10-14T15:26:36.125Z,12.95
2022-10-14T15:32:15.798Z,12.68
2022-10-14T15:34:44.326Z,12.63
2022-10-14T15:37:14.140Z,12.58
2022-10-14T15:39:42.378Z,12.00
2022-10-14T15:42:13.038Z,12.10
2022-10-14T15:44:41.096Z,12.09
2022-10-14T15:47:21.297Z,11.94
2022-10-14T15:49:50.901Z,11.71
2022-10-14T15:52:23.016Z,11.28
2022-10-14T15:56:06.999Z,10.73
2022-10-14T16:00:09.899Z,10.81
2022-10-14T16:03:51.806Z,10.94
2022-10-14T16:08:07.226Z,10.53
2022-10-14T16:11:14.354Z,10.67
2022-10-14T16:14:59.420Z,10.66
2022-10-14T16:18:46.178Z,10.65
2022-10-14T16:22:03.797Z,10.57
2022-10-14T16:25:44.091Z,10.49
2022-10-14T16:29:30.111Z,10.45
2022-10-14T16:33:20.671Z,10.05
2022-10-14T16:36:41.259Z,10.14
2022-10-14T16:40:02.167Z,9.72
2022-10-14T16:44:15.030Z,9.19
2022-10-14T16:48:11.586Z,9.14
2022-10-14T16:55:55.993Z,8.95
2022-10-14T17:02:44.310Z,9.16
2022-10-14T17:12:24.680Z,8.67
2022-10-14T17:15:46.340Z,9.08
2022-10-14T17:20:05.153Z,9.42
2022-10-14T17:23:48.541Z,9.64
2022-10-14T17:27:53.243Z,9.63
2022-10-14T17:33:56.181Z,9.57
2022-10-14T17:36:30.926Z,9.34
2022-10-14T17:39:00.473Z,9.20
2022-10-14T17:41:30.268Z,9.24
2022-10-14T17:44:01.422Z,9.07
2022-10-14T17:46:31.712Z,9.32
2022-10-14T17:49:04.054Z,9.34
2022-10-14T17:51:33.355Z,9.15
2022-10-14T17:54:04.012Z,9.07
2022-10-14T17:56:34.129Z,8.18
2022-10-14T17:59:08.684Z,8.44
2022-10-14T18:02:01.046Z,8.13
2022-10-14T18:04:26.178Z,8.59
2022-10-14T18:06:54.701Z,8.89
2022-10-14T18:09:22.985Z,8.83
2022-10-14T18:12:10.634Z,8.98
2022-10-14T18:14:42.498Z,8.92
2022-10-14T18:17:12.541Z,8.58
2022-10-14T18:19:42.241Z,8.83
2022-10-14T18:22:11.501Z,8.56
2022-10-14T18:24:40.628Z,8.70
2022-10-14T18:27:09.838Z,8.61
2022-10-14T18:29:39.425Z,8.57
2022-10-14T18:32:07.862Z,8.41
2022-10-14T18:34:36.560Z,8.69
2022-10-14T18:37:05.146Z,8.77
2022-10-14T18:39:33.801Z,8.49
2022-10-14T18:42:02.419Z,8.29
2022-10-14T18:44:32.349Z,8.18
2022-10-14T18:47:00.981Z,8.37
2022-10-14T18:49:29.968Z,8.35
2022-10-14T18:51:59.656Z,8.54
2022-10-14T18:54:30.299Z,8.12
2022-10-14T18:56:59.912Z,8.24
2022-10-14T18:59:29.542Z,8.20
2022-10-14T19:01:58.451Z,7.90
2022-10-14T19:04:27.585Z,7.91
2022-10-14T19:06:56.588Z,7.81
2022-10-14T19:09:29.757Z,7.73
2022-10-14T19:11:59.649Z,7.30
2022-10-14T19:14:29.512Z,7.54
2022-10-14T19:16:58.295Z,7.40
2022-10-14T19:19:26.917Z,7.05
2022-10-14T19:21:59.754Z,6.81
2022-10-14T19:24:28.549Z,7.22
2022-10-14T19:26:58.523Z,6.93
2022-10-14T19:29:28.043Z,7.19
2022-10-14T19:31:57.439Z,6.88
2022-10-14T19:34:28.064Z,7.21
2022-10-14T19:37:00.666Z,7.22
2022-10-14T19:39:31.199Z,6.89
2022-10-14T19:42:00.363Z,6.87
2022-10-14T19:44:29.591Z,7.10
2022-10-14T19:47:04.847Z,7.29
2022-10-14T19:49:34.437Z,7.31
2022-10-14T19:52:03.821Z,6.79
2022-10-14T19:54:34.097Z,7.04
2022-10-14T19:57:03.052Z,7.19
2022-10-14T19:59:32.506Z,7.39
2022-10-14T20:02:01.316Z,7.39
2022-10-14T20:04:30.222Z,7.19
2022-10-14T20:07:00.307Z,6.97
2022-10-14T20:09:33.344Z,6.88
2022-10-14T20:12:05.349Z,6.97
2022-10-14T20:14:36.143Z,7.67
2022-10-14T20:17:06.306Z,7.79
2022-10-14T20:19:38.345Z,7.94
2022-10-14T20:22:10.797Z,7.98
2022-10-14T20:24:41.183Z,7.91
2022-10-14T20:27:12.035Z,7.93
2022-10-14T20:29:41.594Z,8.09
2022-10-14T20:32:11.205Z,8.00
2022-10-14T20:34:39.912Z,7.76
2022-10-14T20:37:08.603Z,7.74
2022-10-14T20:39:37.168Z,7.73
2022-10-14T20:42:07.371Z,7.59
2022-10-14T20:44:39.087Z,7.60
2022-10-14T20:47:08.591Z,7.51
2022-10-14T20:49:37.531Z,7.55
2022-10-14T20:52:06.084Z,7.57
2022-10-14T20:54:34.984Z,7.56
2022-10-14T20:57:03.933Z,7.49
2022-10-14T20:59:32.660Z,7.65
2022-10-14T21:02:01.215Z,7.67
2022-10-14T21:04:29.438Z,7.39
2022-10-14T21:06:57.921Z,7.69
2022-10-14T21:09:27.192Z,7.74
2022-10-14T21:11:55.283Z,7.49
2022-10-14T21:14:23.691Z,7.04
2022-10-14T21:16:53.818Z,7.35
2022-10-14T21:19:22.171Z,7.43
2022-10-14T21:21:50.359Z,7.28
2022-10-14T21:24:20.369Z,7.38
2022-10-14T21:26:52.271Z,7.47
2022-10-14T21:29:21.761Z,7.31
2022-10-14T21:31:50.549Z,7.34
2022-10-14T21:34:18.764Z,7.35
2022-10-14T21:36:47.005Z,7.10
2022-10-14T21:39:18.076Z,6.91
2022-10-14T21:41:47.360Z,6.83
2022-10-14T21:44:19.857Z,6.77
2022-10-14T21:46:49.071Z,6.82
2022-10-14T21:49:17.924Z,6.85
2022-10-14T21:51:46.025Z,7.28
2022-10-14T21:54:14.372Z,7.09
2022-10-14T21:56:42.693Z,6.90
2022-10-14T21:59:11.866Z,6.77
2022-10-14T22:01:40.150Z,6.73
2022-10-14T22:04:09.346Z,6.60
2022-10-14T22:06:37.596Z,6.74
2022-10-14T22:09:07.602Z,6.53
2022-10-14T22:11:38.861Z,6.69
2022-10-14T22:14:10.621Z,6.68
2022-10-14T22:16:39.174Z,6.74
2022-10-14T22:19:07.614Z,7.08
2022-10-14T22:21:37.941Z,7.43
2022-10-14T22:26:37.697Z,7.35
2022-10-14T22:29:07.459Z,7.32
2022-10-14T22:31:41.698Z,7.13
2022-10-14T22:34:14.505Z,7.25
2022-10-14T22:36:46.159Z,7.20
2022-10-14T22:39:19.363Z,7.21
2022-10-14T22:41:47.966Z,7.04
2022-10-14T22:44:19.258Z,6.79
2022-10-14T22:46:47.287Z,7.01
2022-10-14T22:49:15.939Z,7.03
2022-10-14T22:51:43.818Z,7.28
2022-10-14T22:54:11.993Z,7.50
2022-10-14T22:56:40.705Z,7.48
2022-10-14T22:59:11.238Z,7.36
2022-10-14T23:01:41.275Z,7.22
2022-10-14T23:04:10.896Z,7.04
2022-10-14T23:06:40.294Z,6.83
2022-10-14T23:09:08.156Z,6.53
2022-10-14T23:11:36.340Z,6.79
2022-10-14T23:14:06.345Z,7.15
2022-10-14T23:16:36.193Z,7.12
2022-10-14T23:19:04.260Z,7.17
2022-10-14T23:21:34.392Z,7.24
2022-10-14T23:24:05.287Z,7.22
2022-10-14T23:26:35.213Z,7.26
2022-10-14T23:29:09.993Z,7.04
2022-10-14T23:31:39.803Z,6.68
2022-10-14T23:34:13.166Z,6.82
2022-10-14T23:36:41.841Z,6.90
2022-10-14T23:39:10.042Z,6.79
2022-10-14T23:41:38.021Z,6.44
2022-10-14T23:44:06.259Z,6.43
2022-10-14T23:46:34.142Z,6.58
2022-10-14T23:49:08.042Z,6.62
2022-10-14T23:51:49.607Z,6.53
2022-10-14T23:54:17.677Z,6.73
2022-10-14T23:56:45.744Z,6.61
2022-10-14T23:59:14.209Z,6.71
